Wetterdaten: Samstag, 06.06.2015
Datum Zeit Temp. A. Feuchte A. Luftdruck Regen Wind Richtung Richtung Sonnenschein ET UV Solar Taupunkt Windchill Windben Empfang
06.06.2015 00:00 17,2 C 60 % 1015,3 hPa 0,0 l/m 4,0 km/h (1 Bft) O 90 0 min 0,000 mm 0,0 UV-I 0 W/m 9,4 C 17,2 C 7,9 km/h (2 Bft) 0,00 %
06.06.2015 01:00 16,5 C 65 % 1015,1 hPa 0,0 l/m 4,7 km/h (1 Bft) O-SO 120 0 min 0,000 mm 0,0 UV-I 0 W/m 9,9 C 16,5 C 7,9 km/h (2 Bft) 0,00 %
06.06.2015 02:00 15,2 C 73 % 1015,1 hPa 0,0 l/m 0,3 km/h (0 Bft) O-NO 60 0 min 0,000 mm 0,0 UV-I 0 W/m 10,4 C 15,2 C 4,0 km/h (1 Bft) 0,00 %
06.06.2015 03:00 14,4 C 78 % 1015,2 hPa 0,0 l/m 0,0 km/h (0 Bft) O-SO 123 0 min 0,000 mm 0,0 UV-I 0 W/m 10,6 C 14,4 C 0,0 km/h (0 Bft) 0,00 %
06.06.2015 04:00 13,7 C 82 % 1015,7 hPa 0,0 l/m 0,0 km/h (0 Bft) O-SO 120 0 min 0,000 mm 0,0 UV-I 0 W/m 10,7 C 13,7 C 0,0 km/h (0 Bft) 0,00 %
06.06.2015 05:00 12,7 C 88 % 1015,8 hPa 0,0 l/m 0,0 km/h (0 Bft) O-SO 120 0 min 0,000 mm 0,0 UV-I 0 W/m 10,8 C 12,7 C 0,0 km/h (0 Bft) 0,00 %
06.06.2015 06:00 15,0 C 79 % 1015,9 hPa 0,0 l/m 0,0 km/h (0 Bft) S 180 60 min 0,000 mm 0,0 UV-I 176 W/m 11,4 C 15,0 C 0,0 km/h (0 Bft) 0,00 %
06.06.2015 07:00 19,3 C 63 % 1015,9 hPa 0,0 l/m 0,0 km/h (0 Bft) S 180 60 min 0,000 mm 1,0 UV-I 392 W/m 12,1 C 19,3 C 0,0 km/h (0 Bft) 0,00 %
06.06.2015 08:00 20,9 C 57 % 1016,3 hPa 0,0 l/m 0,0 km/h (0 Bft) W 270 60 min 0,000 mm 2,0 UV-I 493 W/m 12,1 C 20,9 C 0,0 km/h (0 Bft) 0,00 %
06.06.2015 09:00 22,9 C 56 % 1015,3 hPa 0,0 l/m 0,0 km/h (0 Bft) S 180 60 min 0,000 mm 2,0 UV-I 554 W/m 13,6 C 22,9 C 0,0 km/h (0 Bft) 0,00 %
06.06.2015 10:00 25,1 C 47 % 1015,0 hPa 0,0 l/m 0,6 km/h (0 Bft) W-NW 300 60 min 0,000 mm 3,0 UV-I 665 W/m 13,0 C 25,1 C 4,0 km/h (1 Bft) 0,00 %
06.06.2015 11:00 25,8 C 45 % 1014,6 hPa 0,0 l/m 0,0 km/h (0 Bft) S-SO 150 60 min 0,000 mm 4,0 UV-I 761 W/m 13,0 C 25,8 C 0,0 km/h (0 Bft) 0,00 %
06.06.2015 12:00 27,8 C 42 % 1014,6 hPa 0,0 l/m 0,0 km/h (0 Bft) N 359 60 min 0,000 mm 6,0 UV-I 838 W/m 13,7 C 27,8 C 0,0 km/h (0 Bft) 0,00 %
06.06.2015 13:00 27,4 C 43 % 1014,4 hPa 0,0 l/m 0,0 km/h (0 Bft) SW 220 60 min 0,000 mm 6,0 UV-I 879 W/m 13,7 C 27,4 C 0,0 km/h (0 Bft) 0,00 %
06.06.2015 14:00 29,2 C 37 % 1014,1 hPa 0,0 l/m 0,0 km/h (0 Bft) O-NO 60 60 min 0,000 mm 5,0 UV-I 930 W/m 13,0 C 29,2 C 0,0 km/h (0 Bft) 0,00 %
06.06.2015 15:00 31,1 C 31 % 1013,4 hPa 0,0 l/m 0,0 km/h (0 Bft) O-SO 120 60 min 0,000 mm 5,0 UV-I 961 W/m 11,9 C 31,1 C 0,0 km/h (0 Bft) 0,00 %
06.06.2015 16:00 30,9 C 27 % 1013,4 hPa 0,0 l/m 1,4 km/h (1 Bft) O-SO 120 60 min 0,000 mm 4,0 UV-I 946 W/m 9,7 C 30,9 C 4,0 km/h (1 Bft) 0,00 %
06.06.2015 17:00 31,2 C 27 % 1012,4 hPa 0,0 l/m 1,4 km/h (1 Bft) O-SO 110 60 min 0,000 mm 2,0 UV-I 895 W/m 10,0 C 31,2 C 4,0 km/h (1 Bft) 0,00 %
06.06.2015 18:00 32,1 C 23 % 1011,9 hPa 0,0 l/m 0,0 km/h (0 Bft) O 90 60 min 0,000 mm 1,0 UV-I 793 W/m 8,3 C 32,1 C 0,0 km/h (0 Bft) 0,00 %
06.06.2015 19:00 30,7 C 25 % 1012,1 hPa 0,0 l/m 0,0 km/h (0 Bft) SO 130 60 min 0,000 mm 1,0 UV-I 587 W/m 8,4 C 30,7 C 0,0 km/h (0 Bft) 0,00 %
06.06.2015 20:00 29,9 C 40 % 1012,2 hPa 0,0 l/m 0,0 km/h (0 Bft) S 180 0 min 0,000 mm 0,0 UV-I 58 W/m 14,8 C 29,9 C 0,0 km/h (0 Bft) 0,00 %
06.06.2015 21:00 23,5 C 48 % 1013,4 hPa 0,0 l/m 0,0 km/h (0 Bft) O-SO 120 0 min 0,000 mm 0,0 UV-I 0 W/m 11,8 C 23,5 C 0,0 km/h (0 Bft) 0,00 %
06.06.2015 22:00 21,5 C 57 % 1014,8 hPa 0,0 l/m 0,0 km/h (0 Bft) O-SO 120 0 min 0,000 mm 0,0 UV-I 0 W/m 12,6 C 21,5 C 0,0 km/h (0 Bft) 0,00 %
06.06.2015 23:00 20,1 C 64 % 1016,1 hPa 0,0 l/m 0,0 km/h (0 Bft) SO 130 0 min 0,000 mm 0,0 UV-I 0 W/m 13,1 C 20,1 C 0,0 km/h (0 Bft) 0,00 %
_ Min-Zeit 05:00 18:00 18:00 - 03:00 - - - - - - 18:00 05:00 03:00 00:00
Minimum _ 12,7 C 23 % 1011,9 hPa - 0,0 km/h (0 Bft) - - - - - - 8,3 C 12,7 C 0,0 km/h (0 Bft) 0,00 %
_ Max-Zeit 18:00 05:00 08:00 00:00 01:00 - - 06:00 00:00 12:00 15:00 20:00 18:00 00:00 00:00
Maximum _ 32,1 C 88 % 1016,3 hPa 0,0 l/m 4,7 km/h
O-SO (1 Bft)
- - 60 min 0,000 mm 6,0 UV-I 961 W/m 14,8 C 32,1 C 7,9 km/h
O (2 Bft)
0,00 %
Durchschnitt _ 23,3 C 52 % 1014,5 hPa #0,0 l/m 0,4 km/h (0 Bft) O-SO - #14:00 h #0,000 mm 3,2 UV-I 662 W/m 11,7 C 23,3 C 1,0 km/h (0 Bft) 0,00 %